sensor_id;sensor_type;location;lat;lon;timestamp;P1;durP1;ratioP1;P2;durP2;ratioP2
3101;SDS011;1561;42.666;23.392;2022-09-09T00:00:26;12.40;;;11.30;;
3101;SDS011;1561;42.666;23.392;2022-09-09T00:03:04;12.60;;;11.32;;
3101;SDS011;1561;42.666;23.392;2022-09-09T00:05:43;14.20;;;12.77;;
3101;SDS011;1561;42.666;23.392;2022-09-09T00:08:17;12.55;;;11.45;;
3101;SDS011;1561;42.666;23.392;2022-09-09T00:10:47;13.18;;;11.88;;
3101;SDS011;1561;42.666;23.392;2022-09-09T00:13:22;12.50;;;11.32;;
3101;SDS011;1561;42.666;23.392;2022-09-09T00:15:55;12.30;;;11.00;;
3101;SDS011;1561;42.666;23.392;2022-09-09T00:18:27;13.52;;;12.23;;
3101;SDS011;1561;42.666;23.392;2022-09-09T00:21:00;11.57;;;10.57;;
3101;SDS011;1561;42.666;23.392;2022-09-09T00:23:34;11.45;;;10.50;;
3101;SDS011;1561;42.666;23.392;2022-09-09T00:26:05;11.63;;;10.55;;
3101;SDS011;1561;42.666;23.392;2022-09-09T00:28:41;11.65;;;10.57;;
3101;SDS011;1561;42.666;23.392;2022-09-09T00:31:18;11.90;;;10.80;;
3101;SDS011;1561;42.666;23.392;2022-09-09T00:33:52;12.15;;;11.05;;
3101;SDS011;1561;42.666;23.392;2022-09-09T00:36:21;12.82;;;11.45;;
3101;SDS011;1561;42.666;23.392;2022-09-09T00:38:52;12.40;;;11.20;;
3101;SDS011;1561;42.666;23.392;2022-09-09T00:41:26;12.75;;;11.57;;
3101;SDS011;1561;42.666;23.392;2022-09-09T00:44:12;11.77;;;10.75;;
3101;SDS011;1561;42.666;23.392;2022-09-09T00:46:50;13.35;;;11.95;;
3101;SDS011;1561;42.666;23.392;2022-09-09T00:49:39;13.18;;;11.93;;
3101;SDS011;1561;42.666;23.392;2022-09-09T00:52:23;14.70;;;12.95;;
3101;SDS011;1561;42.666;23.392;2022-09-09T00:55:04;12.88;;;11.77;;
3101;SDS011;1561;42.666;23.392;2022-09-09T00:57:41;13.80;;;12.50;;
3101;SDS011;1561;42.666;23.392;2022-09-09T01:00:20;13.77;;;12.43;;
3101;SDS011;1561;42.666;23.392;2022-09-09T01:03:01;14.02;;;12.80;;
3101;SDS011;1561;42.666;23.392;2022-09-09T01:05:39;16.33;;;12.68;;
3101;SDS011;1561;42.666;23.392;2022-09-09T01:08:13;17.60;;;12.27;;
3101;SDS011;1561;42.666;23.392;2022-09-09T01:10:55;14.13;;;12.90;;
3101;SDS011;1561;42.666;23.392;2022-09-09T01:13:25;14.65;;;13.15;;
3101;SDS011;1561;42.666;23.392;2022-09-09T01:15:56;14.23;;;12.98;;
3101;SDS011;1561;42.666;23.392;2022-09-09T01:18:27;16.17;;;14.63;;
3101;SDS011;1561;42.666;23.392;2022-09-09T01:21:01;13.40;;;12.20;;
3101;SDS011;1561;42.666;23.392;2022-09-09T01:23:37;15.05;;;13.75;;
3101;SDS011;1561;42.666;23.392;2022-09-09T01:26:17;14.45;;;13.15;;
3101;SDS011;1561;42.666;23.392;2022-09-09T01:28:48;15.32;;;13.88;;
3101;SDS011;1561;42.666;23.392;2022-09-09T01:31:18;14.30;;;13.07;;
3101;SDS011;1561;42.666;23.392;2022-09-09T01:33:48;14.20;;;12.90;;
3101;SDS011;1561;42.666;23.392;2022-09-09T01:36:21;13.95;;;12.60;;
3101;SDS011;1561;42.666;23.392;2022-09-09T01:38:55;15.18;;;13.73;;
3101;SDS011;1561;42.666;23.392;2022-09-09T01:41:26;14.18;;;12.88;;
3101;SDS011;1561;42.666;23.392;2022-09-09T01:43:54;14.75;;;13.35;;
3101;SDS011;1561;42.666;23.392;2022-09-09T01:46:22;14.75;;;13.00;;
3101;SDS011;1561;42.666;23.392;2022-09-09T01:48:50;15.00;;;13.52;;
3101;SDS011;1561;42.666;23.392;2022-09-09T01:51:18;14.43;;;12.98;;
3101;SDS011;1561;42.666;23.392;2022-09-09T01:53:45;14.35;;;12.80;;
3101;SDS011;1561;42.666;23.392;2022-09-09T01:56:20;13.85;;;12.55;;
3101;SDS011;1561;42.666;23.392;2022-09-09T01:59:04;15.40;;;12.65;;
3101;SDS011;1561;42.666;23.392;2022-09-09T02:01:46;15.15;;;13.23;;
3101;SDS011;1561;42.666;23.392;2022-09-09T02:04:26;14.07;;;12.73;;
3101;SDS011;1561;42.666;23.392;2022-09-09T02:07:02;14.15;;;12.77;;
3101;SDS011;1561;42.666;23.392;2022-09-09T02:09:37;13.90;;;12.70;;
3101;SDS011;1561;42.666;23.392;2022-09-09T02:12:10;14.88;;;13.32;;
3101;SDS011;1561;42.666;23.392;2022-09-09T02:14:41;14.85;;;13.57;;
3101;SDS011;1561;42.666;23.392;2022-09-09T02:17:13;13.63;;;12.32;;
3101;SDS011;1561;42.666;23.392;2022-09-09T02:19:45;14.18;;;12.75;;
3101;SDS011;1561;42.666;23.392;2022-09-09T02:22:16;15.95;;;14.55;;
3101;SDS011;1561;42.666;23.392;2022-09-09T02:24:46;16.63;;;15.05;;
3101;SDS011;1561;42.666;23.392;2022-09-09T02:27:18;15.80;;;14.30;;
3101;SDS011;1561;42.666;23.392;2022-09-09T02:29:48;14.88;;;13.57;;
3101;SDS011;1561;42.666;23.392;2022-09-09T02:32:19;16.13;;;14.48;;
3101;SDS011;1561;42.666;23.392;2022-09-09T02:34:48;15.65;;;14.13;;
3101;SDS011;1561;42.666;23.392;2022-09-09T02:37:21;16.05;;;14.65;;
3101;SDS011;1561;42.666;23.392;2022-09-09T02:39:53;15.75;;;14.35;;
3101;SDS011;1561;42.666;23.392;2022-09-09T02:42:22;17.38;;;15.82;;
3101;SDS011;1561;42.666;23.392;2022-09-09T02:44:49;18.30;;;15.43;;
3101;SDS011;1561;42.666;23.392;2022-09-09T02:47:19;16.23;;;14.73;;
3101;SDS011;1561;42.666;23.392;2022-09-09T02:50:02;15.80;;;14.30;;
3101;SDS011;1561;42.666;23.392;2022-09-09T02:52:40;14.52;;;13.32;;
3101;SDS011;1561;42.666;23.392;2022-09-09T02:55:16;16.00;;;14.50;;
3101;SDS011;1561;42.666;23.392;2022-09-09T02:57:48;15.75;;;14.35;;
3101;SDS011;1561;42.666;23.392;2022-09-09T03:00:22;15.52;;;14.10;;
3101;SDS011;1561;42.666;23.392;2022-09-09T03:02:50;15.02;;;13.63;;
3101;SDS011;1561;42.666;23.392;2022-09-09T03:05:20;13.32;;;12.00;;
3101;SDS011;1561;42.666;23.392;2022-09-09T03:07:47;15.80;;;13.02;;
3101;SDS011;1561;42.666;23.392;2022-09-09T03:10:16;13.20;;;12.00;;
3101;SDS011;1561;42.666;23.392;2022-09-09T03:12:43;14.50;;;13.30;;
3101;SDS011;1561;42.666;23.392;2022-09-09T03:15:11;15.25;;;12.82;;
3101;SDS011;1561;42.666;23.392;2022-09-09T03:17:40;14.73;;;13.43;;
3101;SDS011;1561;42.666;23.392;2022-09-09T03:20:07;15.00;;;13.68;;
3101;SDS011;1561;42.666;23.392;2022-09-09T03:22:35;16.67;;;15.10;;
3101;SDS011;1561;42.666;23.392;2022-09-09T03:25:03;17.13;;;15.53;;
3101;SDS011;1561;42.666;23.392;2022-09-09T03:27:31;17.03;;;15.40;;
3101;SDS011;1561;42.666;23.392;2022-09-09T03:29:58;18.80;;;16.83;;
3101;SDS011;1561;42.666;23.392;2022-09-09T03:32:30;17.67;;;16.08;;
3101;SDS011;1561;42.666;23.392;2022-09-09T03:34:57;18.00;;;16.20;;
3101;SDS011;1561;42.666;23.392;2022-09-09T03:37:24;17.63;;;15.77;;
3101;SDS011;1561;42.666;23.392;2022-09-09T03:39:51;18.53;;;16.80;;
3101;SDS011;1561;42.666;23.392;2022-09-09T03:42:22;18.23;;;16.45;;
3101;SDS011;1561;42.666;23.392;2022-09-09T03:44:49;21.10;;;16.17;;
3101;SDS011;1561;42.666;23.392;2022-09-09T03:47:20;19.03;;;17.00;;
3101;SDS011;1561;42.666;23.392;2022-09-09T03:49:50;19.03;;;17.00;;
3101;SDS011;1561;42.666;23.392;2022-09-09T03:52:17;18.83;;;16.77;;
3101;SDS011;1561;42.666;23.392;2022-09-09T03:54:45;19.47;;;17.53;;
3101;SDS011;1561;42.666;23.392;2022-09-09T03:57:12;19.90;;;17.97;;
3101;SDS011;1561;42.666;23.392;2022-09-09T03:59:41;20.50;;;18.40;;
3101;SDS011;1561;42.666;23.392;2022-09-09T04:02:11;20.07;;;17.87;;
3101;SDS011;1561;42.666;23.392;2022-09-09T04:04:38;18.80;;;16.80;;
3101;SDS011;1561;42.666;23.392;2022-09-09T04:07:11;18.50;;;16.67;;
3101;SDS011;1561;42.666;23.392;2022-09-09T04:09:38;18.47;;;16.67;;
3101;SDS011;1561;42.666;23.392;2022-09-09T04:12:05;22.97;;;20.67;;
3101;SDS011;1561;42.666;23.392;2022-09-09T04:14:32;21.07;;;18.87;;
3101;SDS011;1561;42.666;23.392;2022-09-09T04:16:59;28.70;;;19.70;;
3101;SDS011;1561;42.666;23.392;2022-09-09T04:19:29;24.03;;;17.80;;
3101;SDS011;1561;42.666;23.392;2022-09-09T04:21:56;18.93;;;17.17;;
3101;SDS011;1561;42.666;23.392;2022-09-09T04:24:26;19.93;;;18.13;;
3101;SDS011;1561;42.666;23.392;2022-09-09T04:26:54;19.33;;;17.30;;
3101;SDS011;1561;42.666;23.392;2022-09-09T04:29:22;19.90;;;17.87;;
3101;SDS011;1561;42.666;23.392;2022-09-09T04:31:50;19.30;;;17.23;;
3101;SDS011;1561;42.666;23.392;2022-09-09T04:34:18;19.73;;;15.73;;
3101;SDS011;1561;42.666;23.392;2022-09-09T04:36:44;16.92;;;15.18;;
3101;SDS011;1561;42.666;23.392;2022-09-09T04:39:11;19.92;;;14.73;;
3101;SDS011;1561;42.666;23.392;2022-09-09T04:41:40;17.13;;;15.63;;
3101;SDS011;1561;42.666;23.392;2022-09-09T04:44:07;18.27;;;15.07;;
3101;SDS011;1561;42.666;23.392;2022-09-09T04:46:35;14.25;;;12.75;;
3101;SDS011;1561;42.666;23.392;2022-09-09T04:49:03;15.30;;;13.70;;
3101;SDS011;1561;42.666;23.392;2022-09-09T04:51:30;14.02;;;12.35;;
3101;SDS011;1561;42.666;23.392;2022-09-09T04:53:58;13.07;;;11.73;;
3101;SDS011;1561;42.666;23.392;2022-09-09T04:56:25;14.27;;;12.65;;
3101;SDS011;1561;42.666;23.392;2022-09-09T04:58:54;17.73;;;13.10;;
3101;SDS011;1561;42.666;23.392;2022-09-09T05:01:24;15.52;;;14.00;;
3101;SDS011;1561;42.666;23.392;2022-09-09T05:03:52;15.07;;;13.57;;
3101;SDS011;1561;42.666;23.392;2022-09-09T05:06:20;15.48;;;13.07;;
3101;SDS011;1561;42.666;23.392;2022-09-09T05:08:49;39.13;;;25.52;;
3101;SDS011;1561;42.666;23.392;2022-09-09T05:11:24;13.77;;;12.48;;
3101;SDS011;1561;42.666;23.392;2022-09-09T05:13:52;16.45;;;14.98;;
3101;SDS011;1561;42.666;23.392;2022-09-09T05:16:21;14.88;;;13.57;;
3101;SDS011;1561;42.666;23.392;2022-09-09T05:18:49;13.85;;;12.45;;
3101;SDS011;1561;42.666;23.392;2022-09-09T05:21:17;13.25;;;12.00;;
3101;SDS011;1561;42.666;23.392;2022-09-09T05:23:45;14.77;;;13.15;;
3101;SDS011;1561;42.666;23.392;2022-09-09T05:26:13;14.07;;;12.88;;
3101;SDS011;1561;42.666;23.392;2022-09-09T05:28:41;13.68;;;12.55;;
3101;SDS011;1561;42.666;23.392;2022-09-09T05:31:10;17.38;;;13.25;;
3101;SDS011;1561;42.666;23.392;2022-09-09T05:33:40;13.30;;;12.20;;
3101;SDS011;1561;42.666;23.392;2022-09-09T05:36:11;12.15;;;10.27;;
3101;SDS011;1561;42.666;23.392;2022-09-09T05:38:43;12.13;;;11.23;;
3101;SDS011;1561;42.666;23.392;2022-09-09T05:41:10;17.50;;;15.70;;
3101;SDS011;1561;42.666;23.392;2022-09-09T05:43:38;13.95;;;11.63;;
3101;SDS011;1561;42.666;23.392;2022-09-09T05:46:07;12.93;;;11.77;;
3101;SDS011;1561;42.666;23.392;2022-09-09T05:48:38;12.82;;;11.52;;
3101;SDS011;1561;42.666;23.392;2022-09-09T05:51:08;12.18;;;11.13;;
3101;SDS011;1561;42.666;23.392;2022-09-09T05:53:41;13.98;;;12.65;;
3101;SDS011;1561;42.666;23.392;2022-09-09T05:56:10;15.07;;;13.60;;
3101;SDS011;1561;42.666;23.392;2022-09-09T05:58:39;13.02;;;11.73;;
3101;SDS011;1561;42.666;23.392;2022-09-09T06:01:09;17.20;;;13.32;;
3101;SDS011;1561;42.666;23.392;2022-09-09T06:03:39;16.40;;;13.20;;
3101;SDS011;1561;42.666;23.392;2022-09-09T06:06:08;19.13;;;12.00;;
3101;SDS011;1561;42.666;23.392;2022-09-09T06:08:37;15.02;;;12.95;;
3101;SDS011;1561;42.666;23.392;2022-09-09T06:11:08;14.75;;;11.63;;
3101;SDS011;1561;42.666;23.392;2022-09-09T06:13:37;12.85;;;11.70;;
3101;SDS011;1561;42.666;23.392;2022-09-09T06:16:05;13.73;;;12.43;;
3101;SDS011;1561;42.666;23.392;2022-09-09T06:18:34;13.70;;;11.38;;
3101;SDS011;1561;42.666;23.392;2022-09-09T06:21:06;10.38;;;9.38;;
3101;SDS011;1561;42.666;23.392;2022-09-09T06:23:34;12.82;;;10.02;;
3101;SDS011;1561;42.666;23.392;2022-09-09T06:26:03;10.65;;;9.63;;
3101;SDS011;1561;42.666;23.392;2022-09-09T06:28:31;12.23;;;10.90;;
3101;SDS011;1561;42.666;23.392;2022-09-09T06:30:58;10.38;;;9.35;;
3101;SDS011;1561;42.666;23.392;2022-09-09T06:33:30;10.95;;;10.00;;
3101;SDS011;1561;42.666;23.392;2022-09-09T06:36:00;10.98;;;9.95;;
3101;SDS011;1561;42.666;23.392;2022-09-09T06:38:30;11.48;;;10.38;;
3101;SDS011;1561;42.666;23.392;2022-09-09T06:40:57;10.77;;;9.88;;
3101;SDS011;1561;42.666;23.392;2022-09-09T06:43:25;11.82;;;10.70;;
3101;SDS011;1561;42.666;23.392;2022-09-09T06:45:57;11.45;;;10.30;;
3101;SDS011;1561;42.666;23.392;2022-09-09T06:48:28;14.85;;;10.10;;
3101;SDS011;1561;42.666;23.392;2022-09-09T06:51:02;10.70;;;9.50;;
3101;SDS011;1561;42.666;23.392;2022-09-09T06:53:33;10.35;;;9.32;;
3101;SDS011;1561;42.666;23.392;2022-09-09T06:56:01;10.00;;;9.20;;
3101;SDS011;1561;42.666;23.392;2022-09-09T06:58:28;10.25;;;9.35;;
3101;SDS011;1561;42.666;23.392;2022-09-09T07:01:01;8.93;;;8.32;;
3101;SDS011;1561;42.666;23.392;2022-09-09T07:03:31;9.80;;;8.80;;
3101;SDS011;1561;42.666;23.392;2022-09-09T07:05:58;9.68;;;8.93;;
3101;SDS011;1561;42.666;23.392;2022-09-09T07:08:26;10.00;;;8.38;;
3101;SDS011;1561;42.666;23.392;2022-09-09T07:10:54;10.20;;;9.27;;
3101;SDS011;1561;42.666;23.392;2022-09-09T07:13:30;8.68;;;7.88;;
3101;SDS011;1561;42.666;23.392;2022-09-09T07:16:02;8.57;;;7.63;;
3101;SDS011;1561;42.666;23.392;2022-09-09T07:18:30;17.50;;;12.90;;
3101;SDS011;1561;42.666;23.392;2022-09-09T07:20:58;11.50;;;10.40;;
3101;SDS011;1561;42.666;23.392;2022-09-09T07:23:26;7.75;;;7.15;;
3101;SDS011;1561;42.666;23.392;2022-09-09T07:25:52;8.07;;;7.47;;
3101;SDS011;1561;42.666;23.392;2022-09-09T07:28:21;8.75;;;7.07;;
3101;SDS011;1561;42.666;23.392;2022-09-09T07:30:53;7.50;;;6.85;;
3101;SDS011;1561;42.666;23.392;2022-09-09T07:33:28;8.60;;;7.80;;
3101;SDS011;1561;42.666;23.392;2022-09-09T07:36:01;7.35;;;6.72;;
3101;SDS011;1561;42.666;23.392;2022-09-09T07:38:31;9.27;;;7.82;;
3101;SDS011;1561;42.666;23.392;2022-09-09T07:41:04;10.68;;;7.15;;
3101;SDS011;1561;42.666;23.392;2022-09-09T07:43:37;8.82;;;7.38;;
3101;SDS011;1561;42.666;23.392;2022-09-09T07:46:05;10.80;;;8.68;;
3101;SDS011;1561;42.666;23.392;2022-09-09T07:48:34;9.10;;;7.40;;
3101;SDS011;1561;42.666;23.392;2022-09-09T07:51:06;8.60;;;7.75;;
3101;SDS011;1561;42.666;23.392;2022-09-09T07:53:37;15.48;;;7.97;;
3101;SDS011;1561;42.666;23.392;2022-09-09T07:56:07;12.40;;;9.70;;
3101;SDS011;1561;42.666;23.392;2022-09-09T07:58:35;18.17;;;8.13;;
3101;SDS011;1561;42.666;23.392;2022-09-09T08:01:07;26.02;;;17.25;;
3101;SDS011;1561;42.666;23.392;2022-09-09T08:03:35;8.95;;;8.15;;
3101;SDS011;1561;42.666;23.392;2022-09-09T08:06:06;12.90;;;8.05;;
3101;SDS011;1561;42.666;23.392;2022-09-09T08:08:36;13.57;;;8.27;;
3101;SDS011;1561;42.666;23.392;2022-09-09T08:11:08;10.45;;;7.00;;
3101;SDS011;1561;42.666;23.392;2022-09-09T08:13:37;7.93;;;7.20;;
3101;SDS011;1561;42.666;23.392;2022-09-09T08:16:07;9.90;;;7.70;;
3101;SDS011;1561;42.666;23.392;2022-09-09T08:18:35;9.10;;;7.78;;
3101;SDS011;1561;42.666;23.392;2022-09-09T08:21:07;11.55;;;8.02;;
3101;SDS011;1561;42.666;23.392;2022-09-09T08:23:37;8.45;;;7.75;;
3101;SDS011;1561;42.666;23.392;2022-09-09T08:26:05;11.80;;;8.18;;
3101;SDS011;1561;42.666;23.392;2022-09-09T08:28:38;8.82;;;7.35;;
3101;SDS011;1561;42.666;23.392;2022-09-09T08:31:08;11.57;;;8.13;;
3101;SDS011;1561;42.666;23.392;2022-09-09T08:33:39;26.20;;;17.27;;
3101;SDS011;1561;42.666;23.392;2022-09-09T08:36:11;12.13;;;8.70;;
3101;SDS011;1561;42.666;23.392;2022-09-09T08:38:40;13.75;;;10.27;;
3101;SDS011;1561;42.666;23.392;2022-09-09T08:44:14;11.32;;;8.57;;
3101;SDS011;1561;42.666;23.392;2022-09-09T08:46:51;8.73;;;8.00;;
3101;SDS011;1561;42.666;23.392;2022-09-09T08:49:34;8.85;;;8.05;;
3101;SDS011;1561;42.666;23.392;2022-09-09T08:52:16;13.10;;;8.73;;
3101;SDS011;1561;42.666;23.392;2022-09-09T08:54:58;38.60;;;21.67;;
3101;SDS011;1561;42.666;23.392;2022-09-09T08:57:31;11.70;;;10.15;;
3101;SDS011;1561;42.666;23.392;2022-09-09T09:00:07;16.90;;;11.07;;
3101;SDS011;1561;42.666;23.392;2022-09-09T09:02:38;8.57;;;7.80;;
3101;SDS011;1561;42.666;23.392;2022-09-09T09:05:15;8.48;;;7.78;;
3101;SDS011;1561;42.666;23.392;2022-09-09T09:07:53;8.48;;;7.70;;
3101;SDS011;1561;42.666;23.392;2022-09-09T09:10:37;9.05;;;8.18;;
3101;SDS011;1561;42.666;23.392;2022-09-09T09:13:15;11.98;;;8.05;;
3101;SDS011;1561;42.666;23.392;2022-09-09T09:15:50;10.55;;;8.13;;
3101;SDS011;1561;42.666;23.392;2022-09-09T09:18:22;8.75;;;8.10;;
3101;SDS011;1561;42.666;23.392;2022-09-09T09:20:50;13.88;;;8.80;;
3101;SDS011;1561;42.666;23.392;2022-09-09T09:23:26;9.45;;;8.65;;
3101;SDS011;1561;42.666;23.392;2022-09-09T09:26:00;12.50;;;9.02;;
3101;SDS011;1561;42.666;23.392;2022-09-09T09:28:31;8.85;;;8.15;;
3101;SDS011;1561;42.666;23.392;2022-09-09T09:31:12;8.77;;;7.97;;
3101;SDS011;1561;42.666;23.392;2022-09-09T09:33:48;10.77;;;9.68;;
3101;SDS011;1561;42.666;23.392;2022-09-09T09:36:18;14.07;;;9.18;;
3101;SDS011;1561;42.666;23.392;2022-09-09T09:38:51;10.32;;;9.20;;
3101;SDS011;1561;42.666;23.392;2022-09-09T09:41:34;10.02;;;8.27;;
3101;SDS011;1561;42.666;23.392;2022-09-09T09:44:05;9.13;;;8.25;;
3101;SDS011;1561;42.666;23.392;2022-09-09T09:46:36;9.98;;;9.07;;
3101;SDS011;1561;42.666;23.392;2022-09-09T09:49:03;9.63;;;8.73;;
3101;SDS011;1561;42.666;23.392;2022-09-09T09:51:32;9.77;;;8.10;;
3101;SDS011;1561;42.666;23.392;2022-09-09T09:54:07;10.48;;;9.52;;
3101;SDS011;1561;42.666;23.392;2022-09-09T09:56:41;8.45;;;7.75;;
3101;SDS011;1561;42.666;23.392;2022-09-09T09:59:19;8.88;;;8.15;;
3101;SDS011;1561;42.666;23.392;2022-09-09T10:01:49;12.23;;;8.27;;
3101;SDS011;1561;42.666;23.392;2022-09-09T10:04:17;10.43;;;8.65;;
3101;SDS011;1561;42.666;23.392;2022-09-09T10:06:48;12.18;;;9.02;;
3101;SDS011;1561;42.666;23.392;2022-09-09T10:09:22;10.25;;;8.77;;
3101;SDS011;1561;42.666;23.392;2022-09-09T10:11:52;10.60;;;8.75;;
3101;SDS011;1561;42.666;23.392;2022-09-09T10:14:30;10.93;;;9.23;;
3101;SDS011;1561;42.666;23.392;2022-09-09T10:17:16;11.80;;;10.30;;
3101;SDS011;1561;42.666;23.392;2022-09-09T10:19:58;11.70;;;10.10;;
3101;SDS011;1561;42.666;23.392;2022-09-09T10:22:36;10.25;;;9.25;;
3101;SDS011;1561;42.666;23.392;2022-09-09T10:25:21;12.55;;;8.95;;
3101;SDS011;1561;42.666;23.392;2022-09-09T10:31:11;10.63;;;9.57;;
3101;SDS011;1561;42.666;23.392;2022-09-09T10:33:55;10.10;;;9.10;;
3101;SDS011;1561;42.666;23.392;2022-09-09T10:36:33;11.13;;;10.00;;
3101;SDS011;1561;42.666;23.392;2022-09-09T10:39:15;10.23;;;9.13;;
3101;SDS011;1561;42.666;23.392;2022-09-09T10:41:54;10.63;;;9.68;;
3101;SDS011;1561;42.666;23.392;2022-09-09T10:47:27;9.18;;;8.40;;
3101;SDS011;1561;42.666;23.392;2022-09-09T10:53:18;10.55;;;9.50;;
3101;SDS011;1561;42.666;23.392;2022-09-09T10:55:56;10.18;;;9.38;;
3101;SDS011;1561;42.666;23.392;2022-09-09T10:58:31;13.02;;;10.32;;
3101;SDS011;1561;42.666;23.392;2022-09-09T11:01:11;9.75;;;8.80;;
3101;SDS011;1561;42.666;23.392;2022-09-09T11:03:44;11.88;;;9.50;;
3101;SDS011;1561;42.666;23.392;2022-09-09T11:06:22;12.98;;;11.18;;
3101;SDS011;1561;42.666;23.392;2022-09-09T11:08:55;12.02;;;8.68;;
3101;SDS011;1561;42.666;23.392;2022-09-09T11:11:27;9.93;;;9.13;;
3101;SDS011;1561;42.666;23.392;2022-09-09T11:14:03;9.60;;;8.63;;
3101;SDS011;1561;42.666;23.392;2022-09-09T11:16:44;15.10;;;11.50;;
3101;SDS011;1561;42.666;23.392;2022-09-09T11:19:17;11.25;;;10.35;;
3101;SDS011;1561;42.666;23.392;2022-09-09T11:21:54;10.25;;;9.35;;
3101;SDS011;1561;42.666;23.392;2022-09-09T11:24:26;11.70;;;10.50;;
3101;SDS011;1561;42.666;23.392;2022-09-09T11:27:00;11.27;;;10.10;;
3101;SDS011;1561;42.666;23.392;2022-09-09T11:32:43;14.05;;;12.60;;
3101;SDS011;1561;42.666;23.392;2022-09-09T11:38:43;15.68;;;11.20;;
3101;SDS011;1561;42.666;23.392;2022-09-09T11:41:12;14.35;;;11.70;;
3101;SDS011;1561;42.666;23.392;2022-09-09T11:43:40;16.30;;;10.70;;
3101;SDS011;1561;42.666;23.392;2022-09-09T11:46:11;10.65;;;9.65;;
3101;SDS011;1561;42.666;23.392;2022-09-09T11:48:40;13.90;;;10.98;;
3101;SDS011;1561;42.666;23.392;2022-09-09T11:51:11;13.70;;;11.85;;
3101;SDS011;1561;42.666;23.392;2022-09-09T11:56:27;12.93;;;11.52;;
3101;SDS011;1561;42.666;23.392;2022-09-09T11:59:06;16.52;;;11.40;;
3101;SDS011;1561;42.666;23.392;2022-09-09T12:01:46;13.73;;;11.57;;
3101;SDS011;1561;42.666;23.392;2022-09-09T12:04:32;12.52;;;11.35;;
3101;SDS011;1561;42.666;23.392;2022-09-09T12:07:05;20.23;;;11.85;;
3101;SDS011;1561;42.666;23.392;2022-09-09T12:09:52;12.77;;;11.57;;
3101;SDS011;1561;42.666;23.392;2022-09-09T12:12:27;13.07;;;11.85;;
3101;SDS011;1561;42.666;23.392;2022-09-09T12:14:59;13.32;;;12.07;;
3101;SDS011;1561;42.666;23.392;2022-09-09T12:17:47;13.70;;;12.38;;
3101;SDS011;1561;42.666;23.392;2022-09-09T12:20:18;12.02;;;10.95;;
3101;SDS011;1561;42.666;23.392;2022-09-09T12:23:02;13.77;;;11.30;;
3101;SDS011;1561;42.666;23.392;2022-09-09T12:25:51;14.80;;;11.60;;
3101;SDS011;1561;42.666;23.392;2022-09-09T12:28:25;12.40;;;11.27;;
3101;SDS011;1561;42.666;23.392;2022-09-09T12:31:08;13.50;;;12.23;;
3101;SDS011;1561;42.666;23.392;2022-09-09T12:33:43;12.77;;;11.48;;
3101;SDS011;1561;42.666;23.392;2022-09-09T12:36:13;13.05;;;11.02;;
3101;SDS011;1561;42.666;23.392;2022-09-09T12:38:43;15.15;;;12.32;;
3101;SDS011;1561;42.666;23.392;2022-09-09T12:41:20;14.07;;;11.15;;
3101;SDS011;1561;42.666;23.392;2022-09-09T12:43:49;13.45;;;12.18;;
3101;SDS011;1561;42.666;23.392;2022-09-09T12:46:20;22.20;;;17.42;;
3101;SDS011;1561;42.666;23.392;2022-09-09T12:48:56;14.32;;;12.77;;
3101;SDS011;1561;42.666;23.392;2022-09-09T12:51:25;13.25;;;11.95;;
3101;SDS011;1561;42.666;23.392;2022-09-09T12:53:54;13.40;;;11.95;;
3101;SDS011;1561;42.666;23.392;2022-09-09T12:56:27;17.75;;;12.45;;
3101;SDS011;1561;42.666;23.392;2022-09-09T12:58:56;13.77;;;11.98;;
3101;SDS011;1561;42.666;23.392;2022-09-09T13:01:25;14.80;;;12.25;;
3101;SDS011;1561;42.666;23.392;2022-09-09T13:03:54;14.80;;;13.18;;
3101;SDS011;1561;42.666;23.392;2022-09-09T13:06:22;15.90;;;12.13;;
3101;SDS011;1561;42.666;23.392;2022-09-09T13:08:52;12.68;;;11.68;;
3101;SDS011;1561;42.666;23.392;2022-09-09T13:11:23;14.50;;;11.98;;
3101;SDS011;1561;42.666;23.392;2022-09-09T13:13:59;16.38;;;11.10;;
3101;SDS011;1561;42.666;23.392;2022-09-09T13:16:26;16.70;;;11.07;;
3101;SDS011;1561;42.666;23.392;2022-09-09T13:18:57;12.50;;;11.32;;
3101;SDS011;1561;42.666;23.392;2022-09-09T13:21:32;13.57;;;12.27;;
3101;SDS011;1561;42.666;23.392;2022-09-09T13:24:00;13.40;;;11.75;;
3101;SDS011;1561;42.666;23.392;2022-09-09T13:26:30;19.27;;;12.35;;
3101;SDS011;1561;42.666;23.392;2022-09-09T13:29:15;13.50;;;11.57;;
3101;SDS011;1561;42.666;23.392;2022-09-09T13:31:49;13.18;;;12.00;;
3101;SDS011;1561;42.666;23.392;2022-09-09T13:34:27;13.52;;;12.07;;
3101;SDS011;1561;42.666;23.392;2022-09-09T13:36:57;13.65;;;12.45;;
3101;SDS011;1561;42.666;23.392;2022-09-09T13:39:28;15.23;;;11.15;;
3101;SDS011;1561;42.666;23.392;2022-09-09T13:41:57;15.35;;;11.77;;
3101;SDS011;1561;42.666;23.392;2022-09-09T13:44:25;12.30;;;11.00;;
3101;SDS011;1561;42.666;23.392;2022-09-09T13:47:02;20.30;;;13.55;;
3101;SDS011;1561;42.666;23.392;2022-09-09T13:49:31;13.63;;;12.38;;
3101;SDS011;1561;42.666;23.392;2022-09-09T13:52:04;13.30;;;12.10;;
3101;SDS011;1561;42.666;23.392;2022-09-09T13:54:32;12.48;;;11.23;;
3101;SDS011;1561;42.666;23.392;2022-09-09T13:57:01;14.70;;;13.13;;
3101;SDS011;1561;42.666;23.392;2022-09-09T13:59:30;18.88;;;12.73;;
3101;SDS011;1561;42.666;23.392;2022-09-09T14:01:59;14.45;;;12.70;;
3101;SDS011;1561;42.666;23.392;2022-09-09T14:04:28;15.70;;;12.68;;
3101;SDS011;1561;42.666;23.392;2022-09-09T14:06:55;16.98;;;12.50;;
3101;SDS011;1561;42.666;23.392;2022-09-09T14:09:23;14.32;;;11.50;;
3101;SDS011;1561;42.666;23.392;2022-09-09T14:11:50;14.50;;;12.18;;
3101;SDS011;1561;42.666;23.392;2022-09-09T14:14:18;13.80;;;12.32;;
3101;SDS011;1561;42.666;23.392;2022-09-09T14:16:45;13.45;;;12.13;;
3101;SDS011;1561;42.666;23.392;2022-09-09T14:19:15;14.10;;;12.68;;
3101;SDS011;1561;42.666;23.392;2022-09-09T14:21:45;13.48;;;12.27;;
3101;SDS011;1561;42.666;23.392;2022-09-09T14:24:14;15.45;;;12.02;;
3101;SDS011;1561;42.666;23.392;2022-09-09T14:26:40;15.27;;;12.15;;
3101;SDS011;1561;42.666;23.392;2022-09-09T14:29:08;13.23;;;11.45;;
3101;SDS011;1561;42.666;23.392;2022-09-09T14:31:37;12.48;;;11.25;;
3101;SDS011;1561;42.666;23.392;2022-09-09T14:34:04;12.98;;;11.75;;
3101;SDS011;1561;42.666;23.392;2022-09-09T14:36:31;15.15;;;10.55;;
3101;SDS011;1561;42.666;23.392;2022-09-09T14:39:00;11.02;;;10.15;;
3101;SDS011;1561;42.666;23.392;2022-09-09T14:41:27;13.38;;;10.73;;
3101;SDS011;1561;42.666;23.392;2022-09-09T14:43:54;12.70;;;11.40;;
3101;SDS011;1561;42.666;23.392;2022-09-09T14:46:22;15.27;;;12.27;;
3101;SDS011;1561;42.666;23.392;2022-09-09T14:48:51;13.35;;;12.05;;
3101;SDS011;1561;42.666;23.392;2022-09-09T14:51:20;12.95;;;11.75;;
3101;SDS011;1561;42.666;23.392;2022-09-09T14:53:51;15.73;;;11.65;;
3101;SDS011;1561;42.666;23.392;2022-09-09T14:56:20;16.48;;;11.15;;
3101;SDS011;1561;42.666;23.392;2022-09-09T14:58:56;13.63;;;11.52;;
3101;SDS011;1561;42.666;23.392;2022-09-09T15:01:26;12.80;;;11.13;;
3101;SDS011;1561;42.666;23.392;2022-09-09T15:03:57;13.73;;;11.75;;
3101;SDS011;1561;42.666;23.392;2022-09-09T15:06:26;12.98;;;11.88;;
3101;SDS011;1561;42.666;23.392;2022-09-09T15:08:55;15.05;;;10.55;;
3101;SDS011;1561;42.666;23.392;2022-09-09T15:11:26;12.95;;;11.68;;
3101;SDS011;1561;42.666;23.392;2022-09-09T15:13:55;12.07;;;10.90;;
3101;SDS011;1561;42.666;23.392;2022-09-09T15:16:24;12.70;;;11.60;;
3101;SDS011;1561;42.666;23.392;2022-09-09T15:18:52;12.88;;;11.57;;
3101;SDS011;1561;42.666;23.392;2022-09-09T15:21:23;13.57;;;12.32;;
3101;SDS011;1561;42.666;23.392;2022-09-09T15:23:52;14.13;;;11.13;;
3101;SDS011;1561;42.666;23.392;2022-09-09T15:26:19;13.00;;;11.57;;